sensor_id;sensor_type;location;lat;lon;timestamp;P1;durP1;ratioP1;P2;durP2;ratioP2
49962;SDS011;36180;57.678;11.910;2023-05-29T00:01:42;9.05;;;2.08;;
49962;SDS011;36180;57.678;11.910;2023-05-29T00:04:10;8.13;;;2.45;;
49962;SDS011;36180;57.678;11.910;2023-05-29T00:06:38;8.32;;;2.40;;
49962;SDS011;36180;57.678;11.910;2023-05-29T00:09:06;7.72;;;2.15;;
49962;SDS011;36180;57.678;11.910;2023-05-29T00:11:33;8.30;;;2.10;;
49962;SDS011;36180;57.678;11.910;2023-05-29T00:14:00;9.07;;;2.22;;
49962;SDS011;36180;57.678;11.910;2023-05-29T00:16:28;9.35;;;1.90;;
49962;SDS011;36180;57.678;11.910;2023-05-29T00:18:55;10.00;;;2.10;;
49962;SDS011;36180;57.678;11.910;2023-05-29T00:21:24;10.80;;;1.92;;
49962;SDS011;36180;57.678;11.910;2023-05-29T00:23:51;9.65;;;2.30;;
49962;SDS011;36180;57.678;11.910;2023-05-29T00:26:18;10.10;;;2.10;;
49962;SDS011;36180;57.678;11.910;2023-05-29T00:28:52;10.23;;;2.58;;
49962;SDS011;36180;57.678;11.910;2023-05-29T00:31:19;7.90;;;2.08;;
49962;SDS011;36180;57.678;11.910;2023-05-29T00:33:46;7.28;;;1.67;;
49962;SDS011;36180;57.678;11.910;2023-05-29T00:36:13;10.13;;;2.50;;
49962;SDS011;36180;57.678;11.910;2023-05-29T00:38:43;6.03;;;2.05;;
49962;SDS011;36180;57.678;11.910;2023-05-29T00:41:12;9.95;;;2.08;;
49962;SDS011;36180;57.678;11.910;2023-05-29T00:43:40;7.93;;;1.85;;
49962;SDS011;36180;57.678;11.910;2023-05-29T00:46:07;9.48;;;1.98;;
49962;SDS011;36180;57.678;11.910;2023-05-29T00:48:35;5.32;;;1.42;;
49962;SDS011;36180;57.678;11.910;2023-05-29T00:51:02;8.55;;;2.10;;
49962;SDS011;36180;57.678;11.910;2023-05-29T00:53:29;5.57;;;1.75;;
49962;SDS011;36180;57.678;11.910;2023-05-29T00:55:58;5.20;;;1.50;;
49962;SDS011;36180;57.678;11.910;2023-05-29T00:58:26;2.97;;;1.40;;
49962;SDS011;36180;57.678;11.910;2023-05-29T01:00:53;4.40;;;1.60;;
49962;SDS011;36180;57.678;11.910;2023-05-29T01:03:20;9.07;;;1.77;;
49962;SDS011;36180;57.678;11.910;2023-05-29T01:05:48;4.38;;;1.42;;
49962;SDS011;36180;57.678;11.910;2023-05-29T01:08:17;7.95;;;1.83;;
49962;SDS011;36180;57.678;11.910;2023-05-29T01:10:44;5.00;;;1.67;;
49962;SDS011;36180;57.678;11.910;2023-05-29T01:13:15;3.60;;;1.40;;
49962;SDS011;36180;57.678;11.910;2023-05-29T01:15:49;4.78;;;1.35;;
49962;SDS011;36180;57.678;11.910;2023-05-29T01:18:27;4.15;;;1.52;;
49962;SDS011;36180;57.678;11.910;2023-05-29T01:21:01;3.63;;;1.35;;
49962;SDS011;36180;57.678;11.910;2023-05-29T01:23:37;6.03;;;1.50;;
49962;SDS011;36180;57.678;11.910;2023-05-29T01:26:21;4.25;;;1.55;;
49962;SDS011;36180;57.678;11.910;2023-05-29T01:28:59;4.13;;;1.58;;
49962;SDS011;36180;57.678;11.910;2023-05-29T01:31:27;7.13;;;1.38;;
49962;SDS011;36180;57.678;11.910;2023-05-29T01:33:57;2.15;;;1.48;;
49962;SDS011;36180;57.678;11.910;2023-05-29T01:36:25;5.28;;;1.60;;
49962;SDS011;36180;57.678;11.910;2023-05-29T01:38:53;3.40;;;1.58;;
49962;SDS011;36180;57.678;11.910;2023-05-29T01:41:21;6.63;;;2.40;;
49962;SDS011;36180;57.678;11.910;2023-05-29T01:43:53;7.97;;;2.80;;
49962;SDS011;36180;57.678;11.910;2023-05-29T01:46:20;6.15;;;2.92;;
49962;SDS011;36180;57.678;11.910;2023-05-29T01:48:48;5.70;;;2.40;;
49962;SDS011;36180;57.678;11.910;2023-05-29T01:51:15;7.00;;;3.00;;
49962;SDS011;36180;57.678;11.910;2023-05-29T01:53:43;8.57;;;3.70;;
49962;SDS011;36180;57.678;11.910;2023-05-29T01:56:10;5.80;;;2.70;;
49962;SDS011;36180;57.678;11.910;2023-05-29T01:58:38;5.68;;;3.22;;
49962;SDS011;36180;57.678;11.910;2023-05-29T02:01:07;6.43;;;2.85;;
49962;SDS011;36180;57.678;11.910;2023-05-29T02:03:34;8.55;;;3.47;;
49962;SDS011;36180;57.678;11.910;2023-05-29T02:06:01;7.88;;;3.67;;
49962;SDS011;36180;57.678;11.910;2023-05-29T02:08:29;10.27;;;3.92;;
49962;SDS011;36180;57.678;11.910;2023-05-29T02:10:56;7.85;;;3.42;;
49962;SDS011;36180;57.678;11.910;2023-05-29T02:13:23;6.53;;;3.55;;
49962;SDS011;36180;57.678;11.910;2023-05-29T02:15:50;6.68;;;2.67;;
49962;SDS011;36180;57.678;11.910;2023-05-29T02:18:19;5.65;;;2.70;;
49962;SDS011;36180;57.678;11.910;2023-05-29T02:20:46;6.85;;;3.30;;
49962;SDS011;36180;57.678;11.910;2023-05-29T02:23:20;10.02;;;2.85;;
49962;SDS011;36180;57.678;11.910;2023-05-29T02:25:47;4.88;;;1.92;;
49962;SDS011;36180;57.678;11.910;2023-05-29T02:28:14;4.60;;;1.60;;
49962;SDS011;36180;57.678;11.910;2023-05-29T02:30:41;4.78;;;1.70;;
49962;SDS011;36180;57.678;11.910;2023-05-29T02:33:08;5.70;;;1.58;;
49962;SDS011;36180;57.678;11.910;2023-05-29T02:35:37;3.58;;;1.55;;
49962;SDS011;36180;57.678;11.910;2023-05-29T02:38:05;4.07;;;1.67;;
49962;SDS011;36180;57.678;11.910;2023-05-29T02:40:32;3.75;;;2.00;;
49962;SDS011;36180;57.678;11.910;2023-05-29T02:42:59;5.05;;;2.47;;
49962;SDS011;36180;57.678;11.910;2023-05-29T02:45:26;8.60;;;2.63;;
49962;SDS011;36180;57.678;11.910;2023-05-29T02:47:53;9.05;;;3.22;;
49962;SDS011;36180;57.678;11.910;2023-05-29T02:50:20;9.68;;;3.67;;
49962;SDS011;36180;57.678;11.910;2023-05-29T02:52:48;12.77;;;4.25;;
49962;SDS011;36180;57.678;11.910;2023-05-29T02:55:15;12.02;;;4.80;;
49962;SDS011;36180;57.678;11.910;2023-05-29T02:57:42;10.45;;;4.82;;
49962;SDS011;36180;57.678;11.910;2023-05-29T03:00:10;19.73;;;4.78;;
49962;SDS011;36180;57.678;11.910;2023-05-29T03:02:39;12.98;;;4.80;;
49962;SDS011;36180;57.678;11.910;2023-05-29T03:05:06;12.07;;;5.15;;
49962;SDS011;36180;57.678;11.910;2023-05-29T03:07:34;15.48;;;5.30;;
49962;SDS011;36180;57.678;11.910;2023-05-29T03:10:03;12.88;;;3.75;;
49962;SDS011;36180;57.678;11.910;2023-05-29T03:12:30;6.18;;;3.33;;
49962;SDS011;36180;57.678;11.910;2023-05-29T03:14:58;3.60;;;1.92;;
49962;SDS011;36180;57.678;11.910;2023-05-29T03:17:27;4.22;;;1.67;;
49962;SDS011;36180;57.678;11.910;2023-05-29T03:19:56;3.65;;;1.60;;
49962;SDS011;36180;57.678;11.910;2023-05-29T03:22:23;2.42;;;1.25;;
49962;SDS011;36180;57.678;11.910;2023-05-29T03:24:51;3.47;;;1.40;;
49962;SDS011;36180;57.678;11.910;2023-05-29T03:27:20;5.35;;;1.20;;
49962;SDS011;36180;57.678;11.910;2023-05-29T03:29:57;2.75;;;1.40;;
49962;SDS011;36180;57.678;11.910;2023-05-29T03:32:24;2.40;;;1.10;;
49962;SDS011;36180;57.678;11.910;2023-05-29T03:34:51;4.50;;;1.63;;
49962;SDS011;36180;57.678;11.910;2023-05-29T03:37:18;2.03;;;0.90;;
49962;SDS011;36180;57.678;11.910;2023-05-29T03:39:46;2.15;;;1.10;;
49962;SDS011;36180;57.678;11.910;2023-05-29T03:42:13;3.88;;;1.58;;
49962;SDS011;36180;57.678;11.910;2023-05-29T03:44:42;3.17;;;1.33;;
49962;SDS011;36180;57.678;11.910;2023-05-29T03:47:10;2.67;;;1.30;;
49962;SDS011;36180;57.678;11.910;2023-05-29T03:49:37;2.95;;;1.25;;
49962;SDS011;36180;57.678;11.910;2023-05-29T03:52:05;3.22;;;1.20;;
49962;SDS011;36180;57.678;11.910;2023-05-29T03:54:32;7.15;;;2.13;;
49962;SDS011;36180;57.678;11.910;2023-05-29T03:57:01;3.88;;;1.40;;
49962;SDS011;36180;57.678;11.910;2023-05-29T03:59:28;4.03;;;1.35;;
49962;SDS011;36180;57.678;11.910;2023-05-29T04:01:58;4.35;;;1.48;;
49962;SDS011;36180;57.678;11.910;2023-05-29T04:04:25;5.30;;;1.63;;
49962;SDS011;36180;57.678;11.910;2023-05-29T04:06:53;3.65;;;1.40;;
49962;SDS011;36180;57.678;11.910;2023-05-29T04:09:20;3.33;;;1.42;;
49962;SDS011;36180;57.678;11.910;2023-05-29T04:11:47;3.05;;;1.20;;
49962;SDS011;36180;57.678;11.910;2023-05-29T04:14:17;4.55;;;1.30;;
49962;SDS011;36180;57.678;11.910;2023-05-29T04:16:44;3.30;;;1.48;;
49962;SDS011;36180;57.678;11.910;2023-05-29T04:19:13;4.43;;;1.45;;
49962;SDS011;36180;57.678;11.910;2023-05-29T04:21:40;4.40;;;1.20;;
49962;SDS011;36180;57.678;11.910;2023-05-29T04:24:07;3.38;;;1.40;;
49962;SDS011;36180;57.678;11.910;2023-05-29T04:26:34;3.28;;;1.65;;
49962;SDS011;36180;57.678;11.910;2023-05-29T04:29:06;3.00;;;1.20;;
49962;SDS011;36180;57.678;11.910;2023-05-29T04:31:34;3.80;;;1.38;;
49962;SDS011;36180;57.678;11.910;2023-05-29T04:34:02;5.45;;;1.40;;
49962;SDS011;36180;57.678;11.910;2023-05-29T04:36:32;4.70;;;1.20;;
49962;SDS011;36180;57.678;11.910;2023-05-29T04:39:10;3.58;;;1.35;;
49962;SDS011;36180;57.678;11.910;2023-05-29T04:41:37;2.70;;;1.38;;
49962;SDS011;36180;57.678;11.910;2023-05-29T04:44:08;5.85;;;1.40;;
49962;SDS011;36180;57.678;11.910;2023-05-29T04:46:49;3.63;;;1.60;;
49962;SDS011;36180;57.678;11.910;2023-05-29T04:49:17;6.78;;;1.70;;
49962;SDS011;36180;57.678;11.910;2023-05-29T04:51:47;4.95;;;1.23;;
49962;SDS011;36180;57.678;11.910;2023-05-29T04:54:17;6.30;;;1.58;;
49962;SDS011;36180;57.678;11.910;2023-05-29T04:56:45;5.03;;;1.60;;
49962;SDS011;36180;57.678;11.910;2023-05-29T04:59:13;5.22;;;1.48;;
49962;SDS011;36180;57.678;11.910;2023-05-29T05:01:40;5.07;;;1.80;;
49962;SDS011;36180;57.678;11.910;2023-05-29T05:04:09;5.10;;;1.63;;
49962;SDS011;36180;57.678;11.910;2023-05-29T05:06:36;6.30;;;1.40;;
49962;SDS011;36180;57.678;11.910;2023-05-29T05:09:06;4.97;;;2.30;;
49962;SDS011;36180;57.678;11.910;2023-05-29T05:11:33;4.93;;;1.80;;
49962;SDS011;36180;57.678;11.910;2023-05-29T05:14:00;3.28;;;1.40;;
49962;SDS011;36180;57.678;11.910;2023-05-29T05:16:28;4.82;;;1.70;;
49962;SDS011;36180;57.678;11.910;2023-05-29T05:18:55;2.80;;;1.20;;
49962;SDS011;36180;57.678;11.910;2023-05-29T05:21:23;2.45;;;1.60;;
49962;SDS011;36180;57.678;11.910;2023-05-29T05:23:57;2.97;;;1.30;;
49962;SDS011;36180;57.678;11.910;2023-05-29T05:26:26;3.33;;;1.15;;
49962;SDS011;36180;57.678;11.910;2023-05-29T05:28:54;3.83;;;1.48;;
49962;SDS011;36180;57.678;11.910;2023-05-29T05:31:23;5.85;;;1.42;;
49962;SDS011;36180;57.678;11.910;2023-05-29T05:33:51;4.45;;;1.40;;
49962;SDS011;36180;57.678;11.910;2023-05-29T05:36:19;1.83;;;1.13;;
49962;SDS011;36180;57.678;11.910;2023-05-29T05:38:52;5.28;;;1.50;;
49962;SDS011;36180;57.678;11.910;2023-05-29T05:41:21;2.53;;;1.15;;
49962;SDS011;36180;57.678;11.910;2023-05-29T05:43:50;4.22;;;1.80;;
49962;SDS011;36180;57.678;11.910;2023-05-29T05:46:36;2.90;;;1.20;;
49962;SDS011;36180;57.678;11.910;2023-05-29T05:49:03;4.05;;;1.20;;
49962;SDS011;36180;57.678;11.910;2023-05-29T05:51:31;5.80;;;1.40;;
49962;SDS011;36180;57.678;11.910;2023-05-29T05:53:58;1.63;;;1.10;;
49962;SDS011;36180;57.678;11.910;2023-05-29T05:56:26;4.53;;;1.42;;
49962;SDS011;36180;57.678;11.910;2023-05-29T05:58:55;1.90;;;1.20;;
49962;SDS011;36180;57.678;11.910;2023-05-29T06:01:22;3.50;;;1.38;;
49962;SDS011;36180;57.678;11.910;2023-05-29T06:03:50;2.85;;;1.23;;
49962;SDS011;36180;57.678;11.910;2023-05-29T06:06:17;1.25;;;1.00;;
49962;SDS011;36180;57.678;11.910;2023-05-29T06:08:45;5.60;;;1.20;;
49962;SDS011;36180;57.678;11.910;2023-05-29T06:11:14;2.90;;;1.05;;
49962;SDS011;36180;57.678;11.910;2023-05-29T06:13:46;6.65;;;1.13;;
49962;SDS011;36180;57.678;11.910;2023-05-29T06:16:24;2.00;;;1.15;;
49962;SDS011;36180;57.678;11.910;2023-05-29T06:18:52;4.50;;;1.02;;
49962;SDS011;36180;57.678;11.910;2023-05-29T06:21:19;3.00;;;1.08;;
49962;SDS011;36180;57.678;11.910;2023-05-29T06:23:51;2.92;;;1.10;;
49962;SDS011;36180;57.678;11.910;2023-05-29T06:26:19;2.63;;;1.60;;
49962;SDS011;36180;57.678;11.910;2023-05-29T06:28:48;2.55;;;1.20;;
49962;SDS011;36180;57.678;11.910;2023-05-29T06:31:15;1.67;;;1.10;;
49962;SDS011;36180;57.678;11.910;2023-05-29T06:33:44;3.65;;;1.33;;
49962;SDS011;36180;57.678;11.910;2023-05-29T06:36:11;1.98;;;0.85;;
49962;SDS011;36180;57.678;11.910;2023-05-29T06:38:39;3.63;;;1.30;;
49962;SDS011;36180;57.678;11.910;2023-05-29T06:41:06;5.28;;;1.10;;
49962;SDS011;36180;57.678;11.910;2023-05-29T06:43:34;4.05;;;1.17;;
49962;SDS011;36180;57.678;11.910;2023-05-29T06:46:02;3.00;;;1.00;;
49962;SDS011;36180;57.678;11.910;2023-05-29T06:48:32;6.03;;;1.08;;
49962;SDS011;36180;57.678;11.910;2023-05-29T06:51:01;3.05;;;0.90;;
49962;SDS011;36180;57.678;11.910;2023-05-29T06:53:39;2.05;;;1.13;;
49962;SDS011;36180;57.678;11.910;2023-05-29T06:56:09;3.38;;;1.08;;
49962;SDS011;36180;57.678;11.910;2023-05-29T06:58:36;1.92;;;1.00;;
49962;SDS011;36180;57.678;11.910;2023-05-29T07:01:03;1.70;;;1.05;;
49962;SDS011;36180;57.678;11.910;2023-05-29T07:03:31;5.25;;;1.38;;
49962;SDS011;36180;57.678;11.910;2023-05-29T07:06:02;1.75;;;1.13;;
49962;SDS011;36180;57.678;11.910;2023-05-29T07:08:31;2.95;;;1.30;;
49962;SDS011;36180;57.678;11.910;2023-05-29T07:10:59;2.70;;;1.10;;
49962;SDS011;36180;57.678;11.910;2023-05-29T07:13:27;3.40;;;1.02;;
49962;SDS011;36180;57.678;11.910;2023-05-29T07:15:54;5.28;;;1.30;;
49962;SDS011;36180;57.678;11.910;2023-05-29T07:18:30;3.42;;;1.15;;
49962;SDS011;36180;57.678;11.910;2023-05-29T07:20:59;3.50;;;1.63;;
49962;SDS011;36180;57.678;11.910;2023-05-29T07:23:29;3.15;;;1.00;;
49962;SDS011;36180;57.678;11.910;2023-05-29T07:25:57;9.57;;;1.52;;
49962;SDS011;36180;57.678;11.910;2023-05-29T07:28:28;3.00;;;1.00;;
49962;SDS011;36180;57.678;11.910;2023-05-29T07:30:55;3.05;;;1.30;;
49962;SDS011;36180;57.678;11.910;2023-05-29T07:33:22;3.25;;;1.23;;
49962;SDS011;36180;57.678;11.910;2023-05-29T07:35:51;5.85;;;1.52;;
49962;SDS011;36180;57.678;11.910;2023-05-29T07:38:18;3.35;;;1.10;;
49962;SDS011;36180;57.678;11.910;2023-05-29T07:40:49;3.35;;;1.02;;
49962;SDS011;36180;57.678;11.910;2023-05-29T07:43:45;3.30;;;1.10;;
49962;SDS011;36180;57.678;11.910;2023-05-29T07:46:18;3.20;;;1.13;;
49962;SDS011;36180;57.678;11.910;2023-05-29T07:48:47;2.70;;;0.93;;
49962;SDS011;36180;57.678;11.910;2023-05-29T07:51:15;1.70;;;0.80;;
49962;SDS011;36180;57.678;11.910;2023-05-29T07:53:45;2.08;;;0.95;;
49962;SDS011;36180;57.678;11.910;2023-05-29T07:56:13;1.50;;;1.00;;
49962;SDS011;36180;57.678;11.910;2023-05-29T07:58:42;1.85;;;1.40;;
49962;SDS011;36180;57.678;11.910;2023-05-29T08:01:10;4.13;;;0.82;;
49962;SDS011;36180;57.678;11.910;2023-05-29T08:03:38;6.38;;;1.20;;
49962;SDS011;36180;57.678;11.910;2023-05-29T08:06:34;2.47;;;0.98;;
49962;SDS011;36180;57.678;11.910;2023-05-29T08:09:03;4.05;;;1.20;;
49962;SDS011;36180;57.678;11.910;2023-05-29T08:11:32;4.20;;;1.42;;
49962;SDS011;36180;57.678;11.910;2023-05-29T08:13:59;6.40;;;1.25;;
49962;SDS011;36180;57.678;11.910;2023-05-29T08:16:26;6.65;;;1.45;;
49962;SDS011;36180;57.678;11.910;2023-05-29T08:18:54;4.30;;;1.50;;
49962;SDS011;36180;57.678;11.910;2023-05-29T08:21:21;6.78;;;1.90;;
49962;SDS011;36180;57.678;11.910;2023-05-29T08:23:48;6.00;;;1.00;;
49962;SDS011;36180;57.678;11.910;2023-05-29T08:26:15;6.63;;;1.35;;
49962;SDS011;36180;57.678;11.910;2023-05-29T08:28:43;2.45;;;1.08;;
49962;SDS011;36180;57.678;11.910;2023-05-29T08:31:10;1.88;;;0.98;;
49962;SDS011;36180;57.678;11.910;2023-05-29T08:33:38;1.95;;;1.20;;
49962;SDS011;36180;57.678;11.910;2023-05-29T08:36:05;7.10;;;1.42;;
49962;SDS011;36180;57.678;11.910;2023-05-29T08:38:32;2.22;;;0.93;;
49962;SDS011;36180;57.678;11.910;2023-05-29T08:40:59;2.17;;;1.00;;
49962;SDS011;36180;57.678;11.910;2023-05-29T08:43:28;2.35;;;1.00;;
49962;SDS011;36180;57.678;11.910;2023-05-29T08:45:59;1.95;;;1.02;;
49962;SDS011;36180;57.678;11.910;2023-05-29T08:48:27;3.42;;;1.25;;
49962;SDS011;36180;57.678;11.910;2023-05-29T08:50:55;3.03;;;1.20;;
49962;SDS011;36180;57.678;11.910;2023-05-29T08:53:23;3.20;;;1.10;;
49962;SDS011;36180;57.678;11.910;2023-05-29T08:55:52;3.97;;;1.23;;
49962;SDS011;36180;57.678;11.910;2023-05-29T08:58:21;2.28;;;1.42;;
49962;SDS011;36180;57.678;11.910;2023-05-29T09:00:48;8.52;;;1.60;;
49962;SDS011;36180;57.678;11.910;2023-05-29T09:03:17;4.10;;;1.00;;
49962;SDS011;36180;57.678;11.910;2023-05-29T09:05:46;2.15;;;1.10;;
49962;SDS011;36180;57.678;11.910;2023-05-29T09:08:15;1.20;;;1.08;;
49962;SDS011;36180;57.678;11.910;2023-05-29T09:10:42;3.50;;;1.00;;
49962;SDS011;36180;57.678;11.910;2023-05-29T09:13:10;2.08;;;0.90;;
49962;SDS011;36180;57.678;11.910;2023-05-29T09:15:38;10.35;;;1.13;;
49962;SDS011;36180;57.678;11.910;2023-05-29T09:18:08;1.90;;;0.95;;
49962;SDS011;36180;57.678;11.910;2023-05-29T09:20:36;1.63;;;0.93;;
49962;SDS011;36180;57.678;11.910;2023-05-29T09:23:04;1.65;;;0.93;;
49962;SDS011;36180;57.678;11.910;2023-05-29T09:25:33;1.25;;;0.77;;
49962;SDS011;36180;57.678;11.910;2023-05-29T09:28:02;2.92;;;1.10;;
49962;SDS011;36180;57.678;11.910;2023-05-29T09:30:32;3.88;;;0.90;;
49962;SDS011;36180;57.678;11.910;2023-05-29T09:33:01;2.90;;;1.00;;
49962;SDS011;36180;57.678;11.910;2023-05-29T09:35:32;3.80;;;0.90;;
49962;SDS011;36180;57.678;11.910;2023-05-29T09:38:01;3.75;;;1.02;;
49962;SDS011;36180;57.678;11.910;2023-05-29T09:40:29;2.25;;;1.30;;
49962;SDS011;36180;57.678;11.910;2023-05-29T09:43:09;6.63;;;0.80;;
49962;SDS011;36180;57.678;11.910;2023-05-29T09:45:37;3.17;;;1.00;;
49962;SDS011;36180;57.678;11.910;2023-05-29T09:48:06;4.03;;;0.90;;
49962;SDS011;36180;57.678;11.910;2023-05-29T09:50:34;2.85;;;0.85;;
49962;SDS011;36180;57.678;11.910;2023-05-29T09:53:03;5.28;;;1.00;;
49962;SDS011;36180;57.678;11.910;2023-05-29T09:55:32;8.93;;;1.25;;
49962;SDS011;36180;57.678;11.910;2023-05-29T09:58:01;3.33;;;0.82;;
49962;SDS011;36180;57.678;11.910;2023-05-29T10:00:28;3.38;;;1.30;;
49962;SDS011;36180;57.678;11.910;2023-05-29T10:02:56;8.88;;;1.20;;
49962;SDS011;36180;57.678;11.910;2023-05-29T10:05:23;4.80;;;1.10;;
49962;SDS011;36180;57.678;11.910;2023-05-29T10:07:51;3.42;;;0.90;;
49962;SDS011;36180;57.678;11.910;2023-05-29T10:10:22;9.10;;;1.27;;
49962;SDS011;36180;57.678;11.910;2023-05-29T10:12:52;5.07;;;1.00;;
49962;SDS011;36180;57.678;11.910;2023-05-29T10:15:20;6.20;;;1.15;;
49962;SDS011;36180;57.678;11.910;2023-05-29T10:17:50;3.90;;;0.90;;
49962;SDS011;36180;57.678;11.910;2023-05-29T10:20:19;1.38;;;0.82;;
49962;SDS011;36180;57.678;11.910;2023-05-29T10:22:47;6.38;;;1.10;;
49962;SDS011;36180;57.678;11.910;2023-05-29T10:25:17;5.82;;;0.90;;
49962;SDS011;36180;57.678;11.910;2023-05-29T10:27:47;2.65;;;0.85;;
49962;SDS011;36180;57.678;11.910;2023-05-29T10:30:18;5.40;;;0.90;;
49962;SDS011;36180;57.678;11.910;2023-05-29T10:35:53;4.95;;;0.82;;
49962;SDS011;36180;57.678;11.910;2023-05-29T10:38:24;1.65;;;0.60;;
49962;SDS011;36180;57.678;11.910;2023-05-29T10:40:51;0.88;;;0.63;;
49962;SDS011;36180;57.678;11.910;2023-05-29T10:43:32;4.43;;;0.77;;
49962;SDS011;36180;57.678;11.910;2023-05-29T10:46:00;4.22;;;1.40;;
49962;SDS011;36180;57.678;11.910;2023-05-29T10:48:37;6.38;;;1.10;;
49962;SDS011;36180;57.678;11.910;2023-05-29T10:51:26;4.50;;;1.02;;
49962;SDS011;36180;57.678;11.910;2023-05-29T10:53:54;6.22;;;1.50;;
49962;SDS011;36180;57.678;11.910;2023-05-29T10:56:22;3.95;;;0.77;;
49962;SDS011;36180;57.678;11.910;2023-05-29T10:58:54;6.03;;;1.05;;
49962;SDS011;36180;57.678;11.910;2023-05-29T11:01:22;14.57;;;1.27;;
49962;SDS011;36180;57.678;11.910;2023-05-29T11:03:50;7.68;;;1.38;;
49962;SDS011;36180;57.678;11.910;2023-05-29T11:06:19;4.47;;;1.48;;
49962;SDS011;36180;57.678;11.910;2023-05-29T11:08:53;1.35;;;0.93;;
49962;SDS011;36180;57.678;11.910;2023-05-29T11:14:02;2.45;;;0.88;;
49962;SDS011;36180;57.678;11.910;2023-05-29T11:19:04;3.25;;;1.27;;
49962;SDS011;36180;57.678;11.910;2023-05-29T11:21:33;5.32;;;1.08;;
49962;SDS011;36180;57.678;11.910;2023-05-29T11:24:03;2.00;;;0.90;;
49962;SDS011;36180;57.678;11.910;2023-05-29T11:26:31;4.28;;;0.90;;
49962;SDS011;36180;57.678;11.910;2023-05-29T11:28:59;4.35;;;0.90;;
49962;SDS011;36180;57.678;11.910;2023-05-29T11:31:28;4.57;;;0.80;;
49962;SDS011;36180;57.678;11.910;2023-05-29T11:33:58;3.08;;;1.10;;
49962;SDS011;36180;57.678;11.910;2023-05-29T11:36:27;1.50;;;0.90;;
49962;SDS011;36180;57.678;11.910;2023-05-29T11:38:55;5.05;;;1.10;;
49962;SDS011;36180;57.678;11.910;2023-05-29T11:41:23;2.78;;;1.05;;
49962;SDS011;36180;57.678;11.910;2023-05-29T11:43:57;3.80;;;1.17;;
49962;SDS011;36180;57.678;11.910;2023-05-29T11:46:24;7.13;;;1.15;;
49962;SDS011;36180;57.678;11.910;2023-05-29T11:48:54;2.10;;;0.90;;
49962;SDS011;36180;57.678;11.910;2023-05-29T11:51:22;5.43;;;0.98;;
49962;SDS011;36180;57.678;11.910;2023-05-29T11:53:49;1.75;;;0.90;;
49962;SDS011;36180;57.678;11.910;2023-05-29T11:56:22;8.43;;;1.40;;
49962;SDS011;36180;57.678;11.910;2023-05-29T11:58:50;3.97;;;0.90;;
49962;SDS011;36180;57.678;11.910;2023-05-29T12:01:20;1.45;;;0.90;;
49962;SDS011;36180;57.678;11.910;2023-05-29T12:03:48;0.98;;;0.77;;
49962;SDS011;36180;57.678;11.910;2023-05-29T12:06:17;2.83;;;0.85;;
49962;SDS011;36180;57.678;11.910;2023-05-29T12:08:57;2.78;;;1.17;;
49962;SDS011;36180;57.678;11.910;2023-05-29T12:11:24;4.03;;;1.23;;
49962;SDS011;36180;57.678;11.910;2023-05-29T12:13:55;3.95;;;1.10;;
49962;SDS011;36180;57.678;11.910;2023-05-29T12:16:22;3.83;;;1.00;;
49962;SDS011;36180;57.678;11.910;2023-05-29T12:18:51;3.25;;;0.90;;
49962;SDS011;36180;57.678;11.910;2023-05-29T12:21:21;2.63;;;1.13;;
49962;SDS011;36180;57.678;11.910;2023-05-29T12:23:51;3.78;;;0.90;;
49962;SDS011;36180;57.678;11.910;2023-05-29T12:26:21;2.28;;;0.90;;
49962;SDS011;36180;57.678;11.910;2023-05-29T12:28:48;1.55;;;0.85;;
49962;SDS011;36180;57.678;11.910;2023-05-29T12:31:25;3.00;;;1.13;;
49962;SDS011;36180;57.678;11.910;2023-05-29T12:33:56;6.40;;;1.50;;
49962;SDS011;36180;57.678;11.910;2023-05-29T12:36:27;3.55;;;0.90;;
49962;SDS011;36180;57.678;11.910;2023-05-29T12:38:55;3.92;;;0.80;;
49962;SDS011;36180;57.678;11.910;2023-05-29T12:41:26;1.40;;;0.80;;
49962;SDS011;36180;57.678;11.910;2023-05-29T12:43:54;4.05;;;0.80;;
49962;SDS011;36180;57.678;11.910;2023-05-29T12:46:22;2.00;;;1.00;;
49962;SDS011;36180;57.678;11.910;2023-05-29T12:48:52;1.88;;;0.82;;
49962;SDS011;36180;57.678;11.910;2023-05-29T12:51:22;1.60;;;1.00;;
49962;SDS011;36180;57.678;11.910;2023-05-29T12:53:51;4.30;;;1.10;;
49962;SDS011;36180;57.678;11.910;2023-05-29T12:56:20;7.35;;;1.10;;
49962;SDS011;36180;57.678;11.910;2023-05-29T12:58:49;4.10;;;1.08;;
49962;SDS011;36180;57.678;11.910;2023-05-29T13:01:16;5.72;;;1.30;;
49962;SDS011;36180;57.678;11.910;2023-05-29T13:03:43;5.93;;;1.13;;
49962;SDS011;36180;57.678;11.910;2023-05-29T13:06:10;5.97;;;1.10;;
49962;SDS011;36180;57.678;11.910;2023-05-29T13:08:38;1.90;;;1.00;;
49962;SDS011;36180;57.678;11.910;2023-05-29T13:11:06;3.83;;;1.20;;
49962;SDS011;36180;57.678;11.910;2023-05-29T13:13:33;1.88;;;1.10;;
49962;SDS011;36180;57.678;11.910;2023-05-29T13:16:00;3.78;;;1.08;;
49962;SDS011;36180;57.678;11.910;2023-05-29T13:18:27;4.95;;;1.60;;
49962;SDS011;36180;57.678;11.910;2023-05-29T13:20:54;6.95;;;1.40;;
49962;SDS011;36180;57.678;11.910;2023-05-29T13:23:21;3.63;;;1.10;;
49962;SDS011;36180;57.678;11.910;2023-05-29T13:25:49;2.47;;;1.13;;
49962;SDS011;36180;57.678;11.910;2023-05-29T13:28:17;2.60;;;1.40;;
49962;SDS011;36180;57.678;11.910;2023-05-29T13:30:44;5.13;;;1.23;;
49962;SDS011;36180;57.678;11.910;2023-05-29T13:33:11;4.40;;;1.10;;
49962;SDS011;36180;57.678;11.910;2023-05-29T13:35:38;3.47;;;1.00;;
49962;SDS011;36180;57.678;11.910;2023-05-29T13:38:05;3.78;;;1.08;;
49962;SDS011;36180;57.678;11.910;2023-05-29T13:40:32;1.60;;;1.17;;
49962;SDS011;36180;57.678;11.910;2023-05-29T13:43:00;8.95;;;1.27;;
49962;SDS011;36180;57.678;11.910;2023-05-29T13:45:29;7.78;;;1.13;;
49962;SDS011;36180;57.678;11.910;2023-05-29T13:47:56;5.18;;;1.95;;
49962;SDS011;36180;57.678;11.910;2023-05-29T13:50:23;4.53;;;1.27;;
49962;SDS011;36180;57.678;11.910;2023-05-29T13:52:51;4.07;;;1.30;;
49962;SDS011;36180;57.678;11.910;2023-05-29T13:55:18;2.45;;;1.02;;
49962;SDS011;36180;57.678;11.910;2023-05-29T13:57:45;3.70;;;1.40;;
49962;SDS011;36180;57.678;11.910;2023-05-29T14:00:12;2.30;;;1.20;;
49962;SDS011;36180;57.678;11.910;2023-05-29T14:02:41;6.97;;;1.73;;
49962;SDS011;36180;57.678;11.910;2023-05-29T14:05:08;5.28;;;1.13;;
49962;SDS011;36180;57.678;11.910;2023-05-29T14:07:36;1.92;;;1.25;;
49962;SDS011;36180;57.678;11.910;2023-05-29T14:10:04;4.50;;;1.65;;
49962;SDS011;36180;57.678;11.910;2023-05-29T14:12:31;5.10;;;1.30;;
49962;SDS011;36180;57.678;11.910;2023-05-29T14:14:59;2.70;;;1.10;;
49962;SDS011;36180;57.678;11.910;2023-05-29T14:17:26;3.65;;;1.45;;
49962;SDS011;36180;57.678;11.910;2023-05-29T14:19:54;4.85;;;1.52;;
49962;SDS011;36180;57.678;11.910;2023-05-29T14:22:21;5.50;;;1.30;;
49962;SDS011;36180;57.678;11.910;2023-05-29T14:24:48;2.40;;;1.25;;
49962;SDS011;36180;57.678;11.910;2023-05-29T14:27:15;5.07;;;1.85;;
49962;SDS011;36180;57.678;11.910;2023-05-29T14:29:42;3.05;;;1.20;;
49962;SDS011;36180;57.678;11.910;2023-05-29T14:32:11;5.20;;;1.27;;
49962;SDS011;36180;57.678;11.910;2023-05-29T14:34:38;3.83;;;1.10;;
49962;SDS011;36180;57.678;11.910;2023-05-29T14:37:06;2.92;;;1.00;;
49962;SDS011;36180;57.678;11.910;2023-05-29T14:39:34;5.70;;;1.30;;
49962;SDS011;36180;57.678;11.910;2023-05-29T14:42:01;4.60;;;1.08;;
49962;SDS011;36180;57.678;11.910;2023-05-29T14:44:28;2.88;;;1.08;;
49962;SDS011;36180;57.678;11.910;2023-05-29T14:46:55;4.95;;;1.55;;
49962;SDS011;36180;57.678;11.910;2023-05-29T14:49:22;5.20;;;1.17;;
49962;SDS011;36180;57.678;11.910;2023-05-29T14:51:49;2.63;;;1.23;;